Time;durP1;ratioP1;P1;durP2;ratioP2;P2;SDS_P1;SDS_P2;PMS_P1;PMS_P2;Temp;Humidity;BMP_temperature;BMP_pressure;BME280_temperature;BME280_humidity;BME280_pressure;Samples;Min_cycle;Max_cycle;Signal;HPM_P1;HPM_P2
2022/01/10 00:02:11;;;;;;;7.57;2.60;;;14.80;48.10;13.90;100571.00;;;;5007420;28;20103;-68
2022/01/10 00:04:57;;;;;;;6.85;2.22;;;14.70;48.00;13.90;100575.00;;;;4995510;28;20506;-68
2022/01/10 00:07:43;;;;;;;8.88;2.50;;;14.70;48.00;13.90;100575.00;;;;5006979;28;20055;-68
2022/01/10 00:10:30;;;;;;;7.50;2.38;;;14.70;48.00;13.90;100577.00;;;;4992403;28;20472;-68
2022/01/10 00:13:16;;;;;;;6.95;2.30;;;14.70;48.00;13.90;100586.00;;;;4993041;28;20050;-68
2022/01/10 00:16:03;;;;;;;9.00;2.70;;;14.70;48.00;13.90;100594.00;;;;4981301;28;20289;-68
2022/01/10 00:18:49;;;;;;;7.68;2.30;;;14.80;48.00;13.90;100594.00;;;;5007639;28;20049;-68
2022/01/10 00:21:35;;;;;;;8.05;2.65;;;14.80;48.10;13.90;100598.00;;;;5000611;28;20422;-68
2022/01/10 00:24:22;;;;;;;6.55;2.30;;;14.70;48.00;13.90;100596.00;;;;4995826;28;20488;-68
2022/01/10 00:27:08;;;;;;;6.28;2.40;;;14.80;48.10;13.90;100606.00;;;;4996322;28;20733;-68
2022/01/10 00:29:54;;;;;;;8.02;2.38;;;14.70;48.10;13.90;100601.00;;;;5007077;28;20084;-68
2022/01/10 00:32:42;;;;;;;6.78;2.28;;;14.80;48.20;13.90;100613.00;;;;4987266;28;20067;-68
2022/01/10 00:35:28;;;;;;;12.43;2.88;;;14.80;48.20;13.90;100616.00;;;;4996773;28;20555;-68
2022/01/10 00:38:14;;;;;;;6.07;2.17;;;14.80;48.10;13.90;100626.00;;;;5008502;28;20044;-68
2022/01/10 00:41:01;;;;;;;7.78;2.60;;;14.70;48.10;13.90;100631.00;;;;5007102;28;20042;-68
2022/01/10 00:43:49;;;;;;;5.97;2.25;;;14.80;48.10;13.90;100628.00;;;;4990690;28;20040;-68
2022/01/10 00:46:36;;;;;;;7.15;2.58;;;14.70;48.10;13.90;100641.00;;;;5012047;28;20049;-68
2022/01/10 00:49:22;;;;;;;7.80;3.08;;;14.70;48.00;13.90;100647.00;;;;4993606;28;20049;-68
2022/01/10 00:52:08;;;;;;;7.15;2.40;;;14.80;48.10;13.90;100650.00;;;;5004843;28;20045;-68
2022/01/10 00:54:54;;;;;;;5.50;2.45;;;14.70;48.10;13.90;100649.00;;;;5005838;28;20277;-68
2022/01/10 00:57:40;;;;;;;8.57;2.72;;;14.80;48.20;13.90;100655.00;;;;5004697;28;20041;-68
2022/01/10 01:00:27;;;;;;;6.13;2.53;;;14.80;48.20;13.90;100661.00;;;;5006714;28;20518;-68
2022/01/10 01:03:13;;;;;;;6.95;2.38;;;14.80;48.30;13.90;100672.00;;;;5026167;28;20045;-68
2022/01/10 01:05:59;;;;;;;5.13;2.13;;;14.80;48.20;13.90;100671.00;;;;5026212;28;20428;-68
2022/01/10 01:08:46;;;;;;;6.30;2.13;;;14.80;48.30;13.90;100678.00;;;;5011984;28;20040;-68
2022/01/10 01:12:02;;;;;;;6.20;2.38;;;14.80;48.30;13.90;100688.00;;;;5027383;28;20037;-68
2022/01/10 01:26:48;;;;;;;8.25;2.90;;;14.80;48.20;13.90;100709.00;;;;5026663;28;20497;-68
2022/01/10 01:29:34;;;;;;;6.55;2.67;;;14.80;48.30;13.90;100722.00;;;;5013368;28;20119;-67
2022/01/10 01:32:20;;;;;;;6.40;2.10;;;14.80;48.30;13.90;100720.00;;;;5025807;28;20544;-68
2022/01/10 01:35:08;;;;;;;5.60;2.10;;;14.80;48.30;13.90;100743.00;;;;5025739;28;20446;-68
2022/01/10 01:37:55;;;;;;;6.67;2.27;;;14.80;48.30;13.90;100736.00;;;;5011166;28;20049;-68
2022/01/10 01:40:52;;;;;;;8.10;2.40;;;14.80;48.40;13.90;100745.00;;;;5027211;28;20041;-68
2022/01/10 01:43:40;;;;;;;5.03;2.20;;;14.80;48.40;13.90;100747.00;;;;5008317;28;20458;-67
2022/01/10 01:46:26;;;;;;;6.13;2.47;;;14.80;48.40;13.90;100751.00;;;;5027450;28;20128;-68
2022/01/10 01:49:13;;;;;;;4.30;2.15;;;14.80;48.40;13.90;100754.00;;;;5011697;28;20553;-68
2022/01/10 01:51:59;;;;;;;5.38;2.42;;;14.80;48.40;13.90;100766.00;;;;5001529;28;20407;-68
2022/01/10 01:54:45;;;;;;;5.03;1.95;;;14.80;48.40;13.90;100773.00;;;;5021863;28;20471;-68
2022/01/10 01:57:31;;;;;;;5.15;2.30;;;14.80;48.40;13.90;100776.00;;;;5026871;28;20566;-67
2022/01/10 02:00:19;;;;;;;7.55;2.45;;;14.80;48.40;13.90;100782.00;;;;5012003;28;20084;-67
2022/01/10 02:03:06;;;;;;;5.20;1.85;;;14.80;48.40;13.90;100788.00;;;;5012186;28;20502;-68
2022/01/10 02:05:52;;;;;;;7.05;2.42;;;14.80;48.40;13.90;100794.00;;;;5012676;28;20048;-68
2022/01/10 02:08:38;;;;;;;5.85;2.50;;;14.80;48.40;13.90;100791.00;;;;5025815;28;20045;-67
2022/01/10 02:11:25;;;;;;;5.20;2.33;;;14.80;48.40;13.90;100803.00;;;;5025679;28;20128;-68
2022/01/10 02:14:11;;;;;;;8.30;2.80;;;14.80;48.40;13.90;100799.00;;;;5027055;28;20206;-67
2022/01/10 02:16:57;;;;;;;6.88;2.50;;;14.80;48.40;13.90;100803.00;;;;5024021;28;20042;-67
2022/01/10 02:19:55;;;;;;;8.25;2.38;;;14.80;48.40;13.90;100808.00;;;;5013749;28;20041;-68
2022/01/10 02:22:41;;;;;;;8.98;2.35;;;14.80;48.50;13.90;100814.00;;;;5024021;28;20040;-67
2022/01/10 02:25:28;;;;;;;5.47;2.10;;;14.80;48.40;13.90;100826.00;;;;5023315;28;20407;-68
2022/01/10 02:28:14;;;;;;;5.18;2.25;;;14.80;48.50;13.90;100829.00;;;;5012448;28;20038;-68
2022/01/10 02:31:00;;;;;;;5.97;2.15;;;14.80;48.50;13.90;100830.00;;;;5026240;28;20041;-68
2022/01/10 02:33:48;;;;;;;4.63;2.03;;;14.80;48.50;13.90;100832.00;;;;5027229;28;20578;-68
2022/01/10 02:36:34;;;;;;;7.50;2.88;;;14.80;48.50;13.90;100846.00;;;;5025599;28;20078;-67
2022/01/10 02:39:21;;;;;;;8.15;2.00;;;14.80;48.50;13.90;100846.00;;;;5011698;28;20041;-68
2022/01/10 02:42:07;;;;;;;6.88;2.75;;;14.80;48.50;13.90;100848.00;;;;5027458;28;20042;-68
2022/01/10 02:44:53;;;;;;;4.85;2.63;;;14.80;48.50;13.90;100852.00;;;;5005397;28;20041;-68
2022/01/10 02:47:40;;;;;;;7.93;2.33;;;14.80;48.50;13.90;100862.00;;;;5024220;28;20056;-68
2022/01/10 02:50:26;;;;;;;5.70;2.55;;;14.80;48.40;13.90;100866.00;;;;5012399;28;20138;-67
2022/01/10 02:53:12;;;;;;;6.57;2.33;;;14.80;48.40;13.90;100867.00;;;;5013453;28;20064;-68
2022/01/10 02:55:58;;;;;;;7.18;2.50;;;14.80;48.40;13.90;100866.00;;;;5013315;28;20246;-68
2022/01/10 02:58:44;;;;;;;7.57;2.50;;;14.70;48.30;13.90;100881.00;;;;5026741;28;20049;-67
2022/01/10 03:01:31;;;;;;;5.95;2.08;;;14.70;48.30;13.90;100880.00;;;;5012142;28;20224;-68
2022/01/10 03:04:17;;;;;;;4.90;2.35;;;14.80;48.40;13.90;100882.00;;;;5025284;28;20160;-68
2022/01/10 03:07:04;;;;;;;6.50;2.78;;;14.70;48.40;13.90;100881.00;;;;4994963;28;20033;-68
2022/01/10 03:09:51;;;;;;;5.63;2.27;;;14.70;48.40;13.90;100885.00;;;;4997312;28;20041;-68
2022/01/10 03:12:37;;;;;;;6.75;2.50;;;14.70;48.40;13.90;100900.00;;;;5011864;28;20045;-67
2022/01/10 03:15:23;;;;;;;5.93;2.28;;;14.70;48.40;13.90;100890.00;;;;5011387;28;20033;-68
2022/01/10 03:18:09;;;;;;;7.18;2.30;;;14.70;48.40;13.90;100893.00;;;;5025811;28;20046;-68
2022/01/10 03:20:56;;;;;;;8.02;2.50;;;14.70;48.40;13.90;100908.00;;;;5024583;28;20052;-67
2022/01/10 03:23:42;;;;;;;6.28;2.00;;;14.70;48.40;13.90;100910.00;;;;5026990;28;20049;-68
2022/01/10 03:26:28;;;;;;;8.60;2.53;;;14.70;48.40;13.90;100911.00;;;;5030115;28;20511;-68
2022/01/10 03:29:14;;;;;;;9.63;2.67;;;14.70;48.40;13.90;100921.00;;;;5030570;28;20499;-68
2022/01/10 03:32:05;;;;;;;6.50;2.25;;;14.70;48.40;13.90;100920.00;;;;5028038;28;20045;-67
2022/01/10 03:34:51;;;;;;;6.85;2.22;;;14.70;48.50;13.80;100923.00;;;;5017451;28;20048;-68
2022/01/10 03:37:38;;;;;;;6.82;2.17;;;14.70;48.50;13.80;100931.00;;;;5030358;28;20049;-68
2022/01/10 03:40:24;;;;;;;6.85;2.17;;;14.70;48.50;13.80;100930.00;;;;5014020;28;20049;-68
2022/01/10 03:43:10;;;;;;;7.25;2.53;;;14.70;48.50;13.80;100942.00;;;;5030560;28;20044;-68
2022/01/10 03:45:57;;;;;;;4.47;2.33;;;14.70;48.50;13.90;100946.00;;;;5029435;28;20048;-68
2022/01/10 03:48:43;;;;;;;4.35;2.40;;;14.70;48.50;13.90;100945.00;;;;5030265;28;20048;-68
2022/01/10 03:51:29;;;;;;;5.30;2.30;;;14.70;48.50;13.90;100956.00;;;;5029376;28;20040;-68
2022/01/10 03:54:15;;;;;;;5.07;2.25;;;14.70;48.50;13.90;100950.00;;;;5027228;28;20038;-68
2022/01/10 03:57:01;;;;;;;6.00;2.22;;;14.70;48.60;13.80;100963.00;;;;5030780;28;20394;-68
2022/01/10 03:59:48;;;;;;;5.40;2.05;;;14.70;48.60;13.80;100963.00;;;;5030540;28;20160;-68
2022/01/10 04:02:35;;;;;;;3.67;2.10;;;14.70;48.60;13.80;100963.00;;;;5028676;28;20052;-68
2022/01/10 04:05:21;;;;;;;4.63;2.22;;;14.70;48.60;13.80;100967.00;;;;5026543;28;20037;-68
2022/01/10 04:08:08;;;;;;;5.43;2.08;;;14.70;48.60;13.80;100967.00;;;;5029453;28;20403;-68
2022/01/10 04:10:54;;;;;;;5.20;2.22;;;14.70;48.60;13.80;100976.00;;;;5029779;28;20131;-68
2022/01/10 04:13:40;;;;;;;6.20;2.75;;;14.70;48.60;13.90;100985.00;;;;5029280;28;20041;-68
2022/01/10 04:16:26;;;;;;;5.50;2.30;;;14.70;48.60;13.80;100990.00;;;;5009614;28;20513;-68
2022/01/10 04:19:12;;;;;;;5.63;2.10;;;14.70;48.60;13.80;100996.00;;;;5014747;28;20045;-68
2022/01/10 04:21:59;;;;;;;4.80;2.40;;;14.70;48.40;13.80;101006.00;;;;5007969;28;20053;-68
2022/01/10 04:24:45;;;;;;;6.25;2.30;;;14.70;48.30;13.90;101004.00;;;;5021591;28;20045;-68
2022/01/10 04:27:32;;;;;;;4.38;2.25;;;14.70;48.30;13.90;101015.00;;;;5030682;28;20033;-68
2022/01/10 04:30:18;;;;;;;9.10;2.50;;;14.70;48.20;13.90;101020.00;;;;5014518;28;20033;-68
2022/01/10 04:33:04;;;;;;;4.45;2.28;;;14.70;48.20;13.90;101026.00;;;;5029515;28;20029;-68
2022/01/10 04:35:50;;;;;;;5.93;2.30;;;14.70;48.20;13.90;101033.00;;;;5025633;28;20037;-68
2022/01/10 04:38:37;;;;;;;7.20;2.42;;;14.70;48.10;13.90;101044.00;;;;5030076;28;20478;-67
2022/01/10 04:41:23;;;;;;;3.78;1.90;;;14.70;48.10;13.90;101040.00;;;;5013533;28;20124;-68
2022/01/10 04:44:09;;;;;;;3.45;1.63;;;14.80;48.10;13.90;101047.00;;;;5026472;28;20549;-67
2022/01/10 04:46:55;;;;;;;3.65;1.95;;;14.80;48.10;14.00;101063.00;;;;5028152;28;20040;-68
2022/01/10 04:52:46;;;;;;;4.55;1.75;;;14.80;48.00;14.00;101082.00;;;;5023082;28;20479;-67
2022/01/10 04:55:32;;;;;;;4.53;2.03;;;14.80;47.90;14.00;101081.00;;;;5001736;28;20041;-68
2022/01/10 04:58:18;;;;;;;3.33;2.00;;;14.80;48.00;14.00;101094.00;;;;5024537;28;20523;-67
2022/01/10 05:01:04;;;;;;;4.35;1.95;;;14.80;47.90;13.90;101083.00;;;;5022008;28;20122;-68
2022/01/10 05:03:51;;;;;;;3.47;1.75;;;14.80;47.90;13.90;101105.00;;;;5019330;28;20465;-68
2022/01/10 05:06:37;;;;;;;4.60;2.17;;;14.80;47.90;14.00;101109.00;;;;5025912;28;20479;-68
2022/01/10 05:09:23;;;;;;;5.38;1.73;;;14.80;47.70;14.00;101111.00;;;;5028225;28;20029;-68
2022/01/10 05:12:09;;;;;;;3.67;1.98;;;14.80;47.80;14.00;101113.00;;;;5027488;28;20041;-68
2022/01/10 05:14:56;;;;;;;3.50;1.77;;;14.80;47.80;13.90;101109.00;;;;5028636;28;20045;-68
2022/01/10 05:17:44;;;;;;;5.40;2.17;;;14.80;47.90;13.90;101125.00;;;;5015095;28;20041;-68
2022/01/10 05:20:30;;;;;;;4.35;1.88;;;14.80;47.90;13.90;101127.00;;;;5014124;28;20033;-68
2022/01/10 05:23:17;;;;;;;4.53;1.90;;;14.80;47.90;13.90;101132.00;;;;5025278;28;20038;-68
2022/01/10 05:26:03;;;;;;;3.70;1.88;;;14.70;47.90;13.90;101137.00;;;;5000913;28;20030;-68
2022/01/10 05:28:49;;;;;;;4.32;1.80;;;14.70;47.90;13.90;101142.00;;;;5011596;28;20132;-68
2022/01/10 05:31:35;;;;;;;4.10;2.00;;;14.80;48.00;13.90;101158.00;;;;5012965;28;20045;-68
2022/01/10 05:34:22;;;;;;;3.15;1.63;;;14.70;47.90;13.90;101156.00;;;;5025725;28;20041;-68
2022/01/10 05:37:08;;;;;;;3.70;1.70;;;14.70;47.90;13.80;101164.00;;;;5026995;28;20045;-68
2022/01/10 05:39:54;;;;;;;2.42;1.52;;;14.70;48.00;13.80;101160.00;;;;5026649;28;20030;-68
2022/01/10 05:42:40;;;;;;;5.47;1.98;;;14.70;48.00;13.80;101167.00;;;;5026204;28;20049;-68
2022/01/10 05:45:26;;;;;;;3.42;1.70;;;14.70;48.00;13.80;101176.00;;;;5025907;28;20483;-68
2022/01/10 05:48:20;;;;;;;5.13;2.30;;;14.70;48.00;13.80;101188.00;;;;5022802;28;20045;-68
2022/01/10 05:51:07;;;;;;;3.70;2.00;;;14.60;48.00;13.80;101181.00;;;;5014765;28;20069;-68
2022/01/10 05:53:53;;;;;;;3.00;1.90;;;14.70;48.00;13.80;101202.00;;;;5024789;28;20056;-68
2022/01/10 05:56:40;;;;;;;4.18;2.10;;;14.60;48.00;13.80;101202.00;;;;5027050;28;20049;-68
2022/01/10 05:59:26;;;;;;;5.65;2.17;;;14.60;48.00;13.80;101200.00;;;;5027181;28;20049;-68
2022/01/10 06:02:12;;;;;;;4.65;2.22;;;14.60;47.90;13.70;101210.00;;;;5025272;28;20057;-68
2022/01/10 06:04:59;;;;;;;4.07;2.10;;;14.60;48.00;13.70;101221.00;;;;5027782;28;20042;-68
2022/01/10 06:07:46;;;;;;;2.33;1.73;;;14.60;48.00;13.70;101222.00;;;;5027778;28;20558;-68
2022/01/10 06:10:32;;;;;;;4.30;1.90;;;14.60;48.00;13.70;101224.00;;;;5027102;28;20033;-68
2022/01/10 06:13:18;;;;;;;4.00;2.20;;;14.60;48.00;13.70;101232.00;;;;5026609;28;20049;-68
2022/01/10 06:16:05;;;;;;;3.00;1.80;;;14.60;48.10;13.70;101237.00;;;;5026143;28;20037;-68
2022/01/10 06:18:51;;;;;;;3.58;1.67;;;14.60;48.00;13.70;101241.00;;;;5024422;28;20179;-68
2022/01/10 06:21:37;;;;;;;3.67;1.67;;;14.50;47.90;13.70;101242.00;;;;5018577;28;20594;-68
2022/01/10 06:24:24;;;;;;;3.15;1.80;;;14.60;48.00;13.70;101251.00;;;;5009783;28;20380;-68
2022/01/10 06:27:10;;;;;;;4.40;2.00;;;14.60;48.00;13.70;101260.00;;;;5026004;28;20033;-68
2022/01/10 06:29:56;;;;;;;2.90;1.65;;;14.50;47.80;13.70;101267.00;;;;5023195;28;20177;-68
2022/01/10 06:32:42;;;;;;;3.88;1.73;;;14.50;47.90;13.70;101275.00;;;;5012369;28;20096;-68
2022/01/10 06:35:28;;;;;;;3.78;1.60;;;14.50;47.90;13.70;101279.00;;;;5025428;28;20479;-68
2022/01/10 06:38:15;;;;;;;4.57;1.65;;;14.50;47.90;13.70;101293.00;;;;5022554;28;20091;-68
2022/01/10 06:41:01;;;;;;;2.00;1.70;;;14.50;47.90;13.70;101297.00;;;;5026488;28;20536;-68
2022/01/10 06:43:47;;;;;;;3.85;1.98;;;14.50;47.80;13.60;101305.00;;;;5025431;28;20046;-68
2022/01/10 06:46:33;;;;;;;4.85;1.85;;;14.50;47.80;13.60;101301.00;;;;5021920;28;20080;-68
2022/01/10 06:49:19;;;;;;;3.00;1.60;;;14.50;47.80;13.60;101319.00;;;;5025921;28;20769;-68
2022/01/10 06:52:06;;;;;;;3.00;2.10;;;14.50;47.70;13.60;101314.00;;;;5025256;28;20037;-68
2022/01/10 06:54:52;;;;;;;3.28;1.90;;;14.50;47.80;13.60;101322.00;;;;5025984;28;20106;-68
2022/01/10 06:57:39;;;;;;;4.18;1.55;;;14.50;47.80;13.60;101326.00;;;;5026868;28;20510;-68
2022/01/10 07:00:25;;;;;;;4.38;2.00;;;14.50;47.70;13.60;101338.00;;;;5025045;28;20049;-68
2022/01/10 07:03:11;;;;;;;3.42;1.63;;;14.50;47.70;13.60;101336.00;;;;5012624;28;20045;-68
2022/01/10 07:05:57;;;;;;;2.78;1.85;;;14.40;47.70;13.60;101356.00;;;;5011584;28;20048;-68
2022/01/10 07:08:43;;;;;;;2.75;1.67;;;14.40;47.70;13.60;101363.00;;;;5006939;28;20041;-68
2022/01/10 07:11:29;;;;;;;4.63;2.10;;;14.40;47.70;13.60;101371.00;;;;5020671;28;20037;-67
2022/01/10 07:14:17;;;;;;;3.97;2.30;;;14.40;47.70;13.60;101376.00;;;;5010959;28;20061;-67
2022/01/10 07:17:03;;;;;;;4.28;1.90;;;14.40;47.80;13.50;101377.00;;;;5004014;28;20138;-68
2022/01/10 07:19:50;;;;;;;2.95;2.00;;;14.40;47.70;13.50;101389.00;;;;4994031;28;20038;-67
2022/01/10 07:22:36;;;;;;;3.67;1.75;;;14.40;47.70;13.50;101396.00;;;;5024293;28;20454;-67
2022/01/10 07:25:22;;;;;;;3.33;2.10;;;14.40;47.70;13.50;101408.00;;;;5024443;28;20124;-68
2022/01/10 07:28:08;;;;;;;2.15;2.05;;;14.40;47.60;13.50;101420.00;;;;5026295;28;20053;-67
2022/01/10 07:30:55;;;;;;;2.30;1.80;;;14.40;47.60;13.50;101429.00;;;;5026759;28;20038;-68
2022/01/10 07:33:41;;;;;;;4.38;1.98;;;14.40;47.70;13.50;101436.00;;;;5024307;28;20041;-67
2022/01/10 07:36:27;;;;;;;4.68;2.13;;;14.40;47.70;13.50;101447.00;;;;5011268;28;20057;-67
2022/01/10 07:39:13;;;;;;;4.50;2.50;;;14.40;47.60;13.50;101453.00;;;;5024425;28;20048;-68
2022/01/10 07:42:00;;;;;;;5.10;2.35;;;14.40;47.50;13.50;101453.00;;;;5023513;28;20033;-67
2022/01/10 07:44:46;;;;;;;6.80;2.42;;;14.40;47.40;13.50;101453.00;;;;5023621;28;20144;-67
2022/01/10 07:47:33;;;;;;;3.55;2.20;;;14.40;47.30;13.50;101461.00;;;;5023994;28;20048;-67
2022/01/10 07:50:19;;;;;;;5.68;2.83;;;14.40;47.30;13.60;101463.00;;;;5005467;28;20037;-67
2022/01/10 07:53:05;;;;;;;2.72;2.10;;;14.40;47.30;13.60;101469.00;;;;5020674;28;20099;-67
2022/01/10 07:55:52;;;;;;;4.43;2.50;;;14.40;47.40;13.50;101470.00;;;;5023207;28;20052;-67
2022/01/10 07:58:38;;;;;;;5.57;2.40;;;14.40;47.40;13.60;101484.00;;;;5000203;28;20053;-67
2022/01/10 08:01:24;;;;;;;3.80;2.42;;;14.40;47.30;13.60;101493.00;;;;5019199;28;20435;-67
2022/01/10 08:04:10;;;;;;;3.05;1.85;;;14.40;47.40;13.50;101498.00;;;;5020529;28;20041;-67
2022/01/10 08:06:57;;;;;;;3.80;2.33;;;14.40;47.40;13.50;101510.00;;;;5018603;28;20045;-67
2022/01/10 08:09:43;;;;;;;4.47;2.40;;;14.40;47.40;13.50;101505.00;;;;5026410;28;20041;-67
2022/01/10 08:12:29;;;;;;;5.15;2.50;;;14.40;47.40;13.50;101511.00;;;;5030630;28;20053;-67
2022/01/10 08:15:15;;;;;;;4.05;2.45;;;14.40;47.40;13.50;101517.00;;;;5026296;28;20108;-67
2022/01/10 08:18:02;;;;;;;6.78;3.17;;;14.40;47.40;13.50;101521.00;;;;5027995;28;20372;-67
2022/01/10 08:20:48;;;;;;;3.85;2.40;;;14.40;47.40;13.50;101527.00;;;;5015422;28;20415;-67
2022/01/10 08:23:35;;;;;;;4.05;2.17;;;14.40;47.40;13.50;101535.00;;;;5027055;28;20069;-67
2022/01/10 08:26:21;;;;;;;4.90;2.75;;;14.30;47.30;13.50;101533.00;;;;5028829;28;20037;-67
2022/01/10 08:29:08;;;;;;;4.20;2.40;;;14.40;47.40;13.50;101553.00;;;;5029465;28;20037;-67
2022/01/10 08:31:55;;;;;;;4.40;2.20;;;14.40;47.40;13.50;101553.00;;;;5028423;28;20135;-67
2022/01/10 08:34:41;;;;;;;3.85;2.25;;;14.40;47.30;13.50;101560.00;;;;5027987;28;20045;-67
2022/01/10 08:37:27;;;;;;;5.78;2.58;;;14.40;47.30;13.50;101566.00;;;;5027151;28;20041;-67
2022/01/10 08:40:14;;;;;;;5.22;2.35;;;14.40;47.30;13.50;101574.00;;;;5024934;28;20045;-67
2022/01/10 08:43:06;;;;;;;4.07;2.40;;;14.40;47.30;13.50;101578.00;;;;5001038;28;20399;-67
2022/01/10 08:45:52;;;;;;;5.72;2.45;;;14.30;47.20;13.50;101574.00;;;;5024302;28;20088;-67
2022/01/10 08:48:38;;;;;;;5.50;2.53;;;14.40;47.20;13.50;101588.00;;;;5027213;28;20123;-67
2022/01/10 08:51:25;;;;;;;3.50;2.30;;;14.40;47.30;13.50;101599.00;;;;5026370;28;20166;-67
2022/01/10 08:54:11;;;;;;;4.25;2.25;;;14.40;47.20;13.50;101607.00;;;;5025600;28;20127;-67
2022/01/10 08:56:58;;;;;;;4.10;2.47;;;14.30;47.20;13.50;101600.00;;;;5003740;28;20076;-67
2022/01/10 08:59:45;;;;;;;3.38;2.47;;;14.40;47.20;13.50;101606.00;;;;5024865;28;20072;-67
2022/01/10 09:02:31;;;;;;;3.35;2.28;;;14.40;47.20;13.50;101608.00;;;;5012166;28;20041;-67
2022/01/10 09:05:18;;;;;;;6.50;2.50;;;14.40;47.20;13.50;101614.00;;;;5028470;28;20041;-67
2022/01/10 09:08:04;;;;;;;5.50;2.35;;;14.40;47.20;13.50;101619.00;;;;5007567;28;20042;-67
2022/01/10 09:10:51;;;;;;;4.05;2.33;;;14.40;47.30;13.50;101617.00;;;;5027433;28;20438;-67
2022/01/10 09:13:37;;;;;;;7.65;2.63;;;14.40;47.30;13.50;101626.00;;;;5003971;28;20045;-67
2022/01/10 09:16:23;;;;;;;7.05;2.83;;;14.40;47.30;13.50;101630.00;;;;5029203;28;20041;-67
2022/01/10 09:19:09;;;;;;;6.82;3.03;;;14.40;47.30;13.50;101636.00;;;;5025860;28;20045;-67
2022/01/10 09:21:56;;;;;;;4.75;2.75;;;14.40;47.30;13.50;101632.00;;;;5011142;28;20041;-67
2022/01/10 09:24:46;;;;;;;3.42;2.35;;;14.40;47.30;13.50;101635.00;;;;5012637;28;20041;-67
2022/01/10 09:27:32;;;;;;;8.55;2.95;;;14.40;47.30;13.50;101638.00;;;;5025240;28;20092;-67
2022/01/10 09:30:18;;;;;;;5.63;2.70;;;14.40;47.30;13.50;101642.00;;;;5013288;28;20042;-67
2022/01/10 09:33:04;;;;;;;5.70;2.97;;;14.40;47.30;13.50;101648.00;;;;5026335;28;20524;-67
2022/01/10 09:35:51;;;;;;;5.63;2.50;;;14.40;47.30;13.50;101653.00;;;;5014803;28;20095;-67
2022/01/10 09:38:37;;;;;;;3.58;2.33;;;14.40;47.30;13.50;101652.00;;;;5027986;28;20096;-67
2022/01/10 09:41:24;;;;;;;5.30;2.53;;;14.30;47.20;13.50;101664.00;;;;5026630;28;20128;-67
2022/01/10 09:44:10;;;;;;;3.72;2.95;;;14.40;47.30;13.50;101671.00;;;;4998757;28;20038;-67
2022/01/10 09:46:56;;;;;;;4.95;2.95;;;14.40;47.30;13.50;101675.00;;;;5027080;28;20505;-67
2022/01/10 09:49:42;;;;;;;4.78;2.90;;;14.40;47.30;13.50;101680.00;;;;5012078;28;20041;-67
2022/01/10 09:52:28;;;;;;;5.82;2.83;;;14.40;47.40;13.50;101680.00;;;;5023299;28;20132;-67
2022/01/10 09:55:15;;;;;;;6.32;2.83;;;14.40;47.40;13.50;101683.00;;;;5027627;28;20494;-67
2022/01/10 09:58:03;;;;;;;4.72;2.83;;;14.40;47.40;13.50;101687.00;;;;5027306;28;20052;-67
2022/01/10 10:00:55;;;;;;;6.03;3.00;;;14.40;47.40;13.50;101686.00;;;;5026775;28;20419;-67
2022/01/10 10:03:49;;;;;;;5.35;2.58;;;14.40;47.40;13.50;101688.00;;;;5025202;28;20129;-67
2022/01/10 10:06:35;;;;;;;5.82;3.50;;;14.40;47.40;13.50;101689.00;;;;5020656;28;20037;-67
2022/01/10 10:09:21;;;;;;;7.50;3.28;;;14.40;47.40;13.50;101698.00;;;;5025188;28;20037;-67
2022/01/10 10:12:08;;;;;;;5.10;3.20;;;14.40;47.40;13.50;101708.00;;;;4981521;28;20045;-67
2022/01/10 10:14:54;;;;;;;6.28;3.20;;;14.40;47.40;13.50;101720.00;;;;5012988;28;20332;-67
2022/01/10 10:17:41;;;;;;;5.07;3.00;;;14.40;47.40;13.50;101721.00;;;;5025565;28;20479;-68
2022/01/10 10:20:28;;;;;;;6.68;3.38;;;14.40;47.40;13.50;101732.00;;;;5027882;28;20045;-67
2022/01/10 10:23:16;;;;;;;7.65;3.80;;;14.40;47.40;13.50;101734.00;;;;5025242;28;20663;-67
2022/01/10 10:26:04;;;;;;;6.00;3.60;;;14.40;47.40;13.50;101736.00;;;;5024320;28;20095;-68
2022/01/10 10:28:52;;;;;;;6.75;3.53;;;14.40;47.50;13.50;101735.00;;;;5023721;28;20048;-67
2022/01/10 10:31:52;;;;;;;;;;;14.50;47.50;13.50;101740.00;;;;5024995;28;20091;-67
2022/01/10 10:34:38;;;;;;;6.22;3.60;;;14.40;47.50;13.50;101745.00;;;;5008252;28;20004;-67
2022/01/10 10:37:27;;;;;;;6.40;3.20;;;14.50;47.40;13.50;101755.00;;;;5005838;28;20045;-67
2022/01/10 10:40:14;;;;;;;5.95;3.58;;;14.40;47.50;13.50;101767.00;;;;5024034;28;20038;-67
2022/01/10 10:43:01;;;;;;;7.07;3.93;;;14.40;47.50;13.50;101777.00;;;;5025101;28;20038;-67
2022/01/10 10:45:48;;;;;;;6.32;3.60;;;14.40;47.50;13.50;101767.00;;;;5012980;28;20268;-67
2022/01/10 10:48:35;;;;;;;7.88;4.18;;;14.50;47.60;13.50;101779.00;;;;5007088;28;20482;-68
2022/01/10 10:51:21;;;;;;;6.50;3.80;;;14.40;47.60;13.50;101775.00;;;;5010134;28;20185;-67
2022/01/10 10:54:09;;;;;;;6.28;3.67;;;14.50;47.60;13.50;101778.00;;;;5024469;28;20068;-68
2022/01/10 10:56:58;;;;;;;5.50;3.45;;;14.40;47.80;13.50;101781.00;;;;5024915;28;20506;-67
2022/01/10 10:59:48;;;;;;;6.00;3.70;;;14.50;47.60;13.50;101785.00;;;;5026693;28;20133;-68
2022/01/10 11:02:34;;;;;;;9.57;4.13;;;14.50;47.60;13.60;101784.00;;;;5021555;28;20041;-68
2022/01/10 11:05:21;;;;;;;9.02;4.40;;;14.50;47.60;13.60;101792.00;;;;5023692;28;20037;-68
2022/01/10 11:08:07;;;;;;;7.07;4.40;;;14.50;47.60;13.60;101796.00;;;;5009698;28;20163;-68
2022/01/10 11:10:53;;;;;;;5.93;4.13;;;14.50;48.20;13.60;101804.00;;;;5012657;28;20069;-68
2022/01/10 11:13:40;;;;;;;7.03;4.60;;;14.50;47.60;13.60;101810.00;;;;5001268;28;20107;-67
2022/01/10 11:16:31;;;;;;;5.45;4.20;;;14.50;47.60;13.60;101810.00;;;;5008758;28;20533;-67
2022/01/10 11:19:23;;;;;;;7.63;4.72;;;14.60;47.70;13.60;101806.00;;;;5023096;28;20072;-67
2022/01/10 11:22:11;;;;;;;7.18;3.92;;;14.50;47.60;13.60;101810.00;;;;4996637;28;20060;-67
2022/01/10 11:24:57;;;;;;;6.28;4.15;;;14.60;47.70;13.60;101800.00;;;;5001510;28;20038;-67
2022/01/10 11:27:44;;;;;;;8.18;4.15;;;14.50;47.60;13.60;101798.00;;;;5022038;28;20034;-67
2022/01/10 11:30:41;;;;;;;8.07;4.85;;;14.50;47.70;13.60;101805.00;;;;5024118;28;20407;-68
2022/01/10 11:33:29;;;;;;;9.30;4.65;;;14.60;47.70;13.60;101802.00;;;;5023951;28;20521;-68
2022/01/10 11:36:16;;;;;;;7.63;4.47;;;14.60;47.70;13.60;101816.00;;;;5013175;28;20041;-68
2022/01/10 11:39:11;;;;;;;7.55;5.28;;;14.60;47.70;13.60;101820.00;;;;5008939;28;20037;-67
2022/01/10 11:41:57;;;;;;;7.93;4.30;;;14.60;47.70;13.60;101821.00;;;;5024453;28;20095;-68
2022/01/10 11:45:10;;;;;;;7.05;4.97;;;14.60;47.70;13.70;101818.00;;;;5024707;28;20044;-67
2022/01/10 11:48:02;;;;;;;7.13;4.50;;;14.60;47.70;13.70;101823.00;;;;5019913;28;20372;-68
2022/01/10 11:50:48;;;;;;;8.23;4.50;;;14.60;47.70;13.60;101825.00;;;;5028101;28;20528;-68
2022/01/10 11:53:35;;;;;;;8.95;4.47;;;14.60;47.80;13.70;101839.00;;;;5002138;28;20116;-68
2022/01/10 11:56:32;;;;;;;9.00;4.80;;;14.60;47.80;13.70;101848.00;;;;5014239;28;20038;-68
2022/01/10 11:59:27;;;;;;;6.55;3.95;;;14.60;47.80;13.70;101843.00;;;;5013570;28;20053;-68
2022/01/10 12:02:23;;;;;;;8.75;5.18;;;14.60;47.80;13.70;101831.00;;;;5029056;28;20124;-68
2022/01/10 12:05:09;;;;;;;7.03;5.15;;;14.70;47.80;13.70;101842.00;;;;5014330;28;20037;-68
2022/01/10 12:07:56;;;;;;;7.50;4.68;;;14.70;47.90;13.70;101844.00;;;;5029215;28;20038;-68
2022/01/10 12:10:43;;;;;;;7.05;4.28;;;14.70;47.80;13.70;101850.00;;;;5029044;28;20542;-68
2022/01/10 12:13:30;;;;;;;7.07;4.97;;;14.70;47.90;13.70;101852.00;;;;5013116;28;20060;-68
2022/01/10 12:16:17;;;;;;;8.02;4.60;;;14.70;47.90;13.70;101854.00;;;;5028553;28;20037;-67
2022/01/10 12:19:03;;;;;;;10.10;5.57;;;14.70;47.90;13.70;101858.00;;;;5029324;28;20422;-68
2022/01/10 12:21:50;;;;;;;7.70;5.00;;;14.70;47.90;13.70;101854.00;;;;5013921;28;20107;-68
2022/01/10 12:24:40;;;;;;;9.98;5.78;;;14.70;47.80;13.70;101860.00;;;;5006479;28;20128;-68
2022/01/10 12:27:26;;;;;;;10.35;5.22;;;14.70;47.90;13.80;101876.00;;;;5015685;28;20041;-68
2022/01/10 12:30:13;;;;;;;9.15;6.13;;;14.70;47.80;13.80;101872.00;;;;5015282;28;20034;-68